Time;durP1;ratioP1;P1;durP2;ratioP2;P2;SDS_P1;SDS_P2;PMS_P1;PMS_P2;Temp;Humidity;BMP_temperature;BMP_pressure;BME280_temperature;BME280_humidity;BME280_pressure;Samples;Min_cycle;Max_cycle;Signal;HPM_P1;HPM_P2
2022/08/19 00:00:15;;;;;;;;;;;24.20;99.90;;;;;;5074632;28;20601;-74
2022/08/19 00:02:41;;;;;;;;;;;24.10;99.90;;;;;;5061704;28;19920;-74
2022/08/19 00:05:08;;;;;;;;;;;24.00;99.90;;;;;;5090305;28;19918;-73
2022/08/19 00:07:33;;;;;;;;;;;24.10;99.90;;;;;;5078292;28;20019;-75
2022/08/19 00:09:59;;;;;;;;;;;24.20;99.90;;;;;;5077392;28;20015;-74
2022/08/19 00:12:25;;;;;;;;;;;24.30;99.90;;;;;;5076375;28;19978;-74
2022/08/19 00:14:50;;;;;;;;;;;24.30;99.90;;;;;;5079341;28;19916;-73
2022/08/19 00:17:16;;;;;;;;;;;24.30;99.90;;;;;;5077519;28;19927;-72
2022/08/19 00:19:41;;;;;;;;;;;24.30;99.90;;;;;;5061539;28;20234;-73
2022/08/19 00:22:08;;;;;;;;;;;24.10;99.90;;;;;;5081131;28;20015;-74
2022/08/19 00:24:35;;;;;;;;;;;24.00;99.90;;;;;;5080576;28;19918;-73
2022/08/19 00:27:01;;;;;;;;;;;23.90;99.90;;;;;;5066076;28;20022;-72
2022/08/19 00:29:27;;;;;;;;;;;24.00;99.90;;;;;;5081021;28;19969;-73
2022/08/19 00:31:54;;;;;;;;;;;24.30;99.90;;;;;;5081271;28;19956;-73
2022/08/19 00:34:21;;;;;;;;;;;24.40;99.90;;;;;;5091890;28;19918;-74
2022/08/19 00:36:47;;;;;;;;;;;24.50;99.90;;;;;;5087540;28;19919;-74
2022/08/19 00:39:14;;;;;;;;;;;24.40;99.90;;;;;;5080391;28;19923;-74
2022/08/19 00:41:40;;;;;;;;;;;24.40;99.90;;;;;;5079130;28;20400;-72
2022/08/19 00:44:14;;;;;;;;;;;24.40;99.90;;;;;;5082597;28;19958;-73
2022/08/19 00:46:41;;;;;;;;;;;24.60;99.90;;;;;;5066377;28;20399;-73
2022/08/19 00:49:14;;;;;;;;;;;24.50;99.90;;;;;;5063499;28;19912;-73
2022/08/19 00:51:41;;;;;;;;;;;24.40;99.90;;;;;;5065923;28;19912;-73
2022/08/19 00:54:06;;;;;;;;;;;24.50;99.90;;;;;;5082951;28;19913;-76
2022/08/19 00:56:32;;;;;;;;;;;24.50;99.90;;;;;;5062271;28;19921;-73
2022/08/19 00:58:58;;;;;;;;;;;24.60;99.90;;;;;;5085744;28;20355;-72
2022/08/19 01:01:24;;;;;;;;;;;24.60;99.90;;;;;;5099081;28;19920;-73
2022/08/19 01:03:50;;;;;;;;;;;24.70;99.90;;;;;;5081875;28;20443;-74
2022/08/19 01:06:15;;;;;;;;;;;24.50;99.90;;;;;;5093385;28;19919;-73
2022/08/19 01:08:41;;;;;;;;;;;24.20;99.90;;;;;;5087825;28;19913;-73
2022/08/19 01:11:07;;;;;;;;;;;23.90;99.90;;;;;;5084192;28;19928;-73
2022/08/19 01:13:33;;;;;;;;;;;23.70;99.90;;;;;;5081851;28;19919;-76
2022/08/19 01:16:05;;;;;;;;;;;23.20;99.90;;;;;;5082789;28;20042;-75
2022/08/19 01:18:31;;;;;;;;;;;22.60;99.90;;;;;;5079431;28;19969;-76
2022/08/19 01:21:00;;;;;;;;;;;22.50;99.90;;;;;;5083103;28;19916;-75
2022/08/19 01:23:42;;;;;;;;;;;22.50;99.90;;;;;;5061342;28;19962;-73
2022/08/19 01:26:11;;;;;;;;;;;22.80;99.90;;;;;;5085696;28;19911;-74
2022/08/19 01:28:37;;;;;;;;;;;23.00;99.90;;;;;;5079371;28;19917;-73
2022/08/19 01:31:03;;;;;;;;;;;23.10;99.90;;;;;;5081685;28;19919;-74
2022/08/19 01:33:30;;;;;;;;;;;23.00;99.90;;;;;;5081074;28;19919;-74
2022/08/19 01:36:06;;;;;;;;;;;22.70;99.90;;;;;;5083080;28;19913;-74
2022/08/19 01:38:34;;;;;;;;;;;22.30;99.90;;;;;;5091022;28;19919;-73
2022/08/19 01:41:00;;;;;;;;;;;21.90;99.90;;;;;;5081442;28;19964;-74
2022/08/19 01:43:26;;;;;;;;;;;21.60;99.90;;;;;;5084483;28;19935;-73
2022/08/19 01:45:52;;;;;;;;;;;21.30;99.90;;;;;;5098895;28;19937;-74
2022/08/19 01:48:18;;;;;;;;;;;21.10;99.90;;;;;;5080472;28;20295;-73
2022/08/19 01:50:43;;;;;;;;;;;20.90;99.90;;;;;;5080813;28;20007;-73
2022/08/19 01:53:10;;;;;;;;;;;21.00;99.90;;;;;;5081995;28;19985;-74
2022/08/19 01:55:37;;;;;;;;;;;21.00;99.90;;;;;;5082235;28;19990;-74
2022/08/19 01:58:05;;;;;;;;;;;21.00;99.90;;;;;;5093685;28;20353;-73
2022/08/19 02:00:31;;;;;;;;;;;21.00;99.90;;;;;;5088704;28;19928;-73
2022/08/19 02:02:57;;;;;;;;;;;20.90;99.90;;;;;;5077924;28;19912;-74
2022/08/19 02:05:23;;;;;;;;;;;21.00;99.90;;;;;;5116064;27;19916;-75
2022/08/19 02:07:48;;;;;;;;;;;21.20;99.90;;;;;;5080116;28;19917;-74
2022/08/19 02:10:19;;;;;;;;;;;21.30;99.90;;;;;;5081766;28;20363;-74
2022/08/19 02:12:45;;;;;;;;;;;21.40;99.90;;;;;;5080772;28;19998;-74
2022/08/19 02:15:11;;;;;;;;;;;21.50;99.90;;;;;;5088380;28;20047;-73
2022/08/19 02:17:37;;;;;;;;;;;21.40;99.90;;;;;;5099143;28;20423;-74
2022/08/19 02:20:03;;;;;;;;;;;21.30;99.90;;;;;;5082905;28;19920;-73
2022/08/19 02:22:28;;;;;;;;;;;21.40;99.90;;;;;;5079273;28;19916;-74
2022/08/19 02:24:54;;;;;;;;;;;21.00;99.90;;;;;;5081800;28;20869;-74
2022/08/19 02:27:20;;;;;;;;;;;20.80;99.90;;;;;;5080763;28;19927;-73
2022/08/19 02:29:46;;;;;;;;;;;20.60;99.90;;;;;;5077578;28;19912;-73
2022/08/19 02:32:13;;;;;;;;;;;20.50;99.90;;;;;;5088418;28;20582;-72
2022/08/19 02:34:39;;;;;;;;;;;20.40;99.90;;;;;;5073064;28;20289;-73
2022/08/19 02:37:04;;;;;;;;;;;20.30;99.90;;;;;;5095316;27;19932;-74
2022/08/19 02:39:30;;;;;;;;;;;20.20;99.90;;;;;;5088763;28;20259;-73
2022/08/19 02:41:56;;;;;;;;;;;20.20;99.90;;;;;;5084306;28;19928;-74
2022/08/19 02:44:21;;;;;;;;;;;20.40;99.90;;;;;;5093662;28;21969;-73
2022/08/19 02:46:47;;;;;;;;;;;20.50;99.90;;;;;;5079367;28;20007;-74
2022/08/19 02:49:16;;;;;;;;;;;20.50;99.90;;;;;;5079230;28;20243;-73
2022/08/19 02:51:43;;;;;;;;;;;20.60;99.90;;;;;;5102990;28;19916;-73
2022/08/19 02:54:09;;;;;;;;;;;20.50;99.90;;;;;;5081237;28;20014;-74
2022/08/19 02:56:36;;;;;;;;;;;20.40;99.90;;;;;;5080820;28;19974;-74
2022/08/19 02:59:01;;;;;;;;;;;20.30;99.90;;;;;;5081731;28;19916;-73
2022/08/19 03:01:31;;;;;;;;;;;20.30;99.90;;;;;;5078933;28;20430;-73
2022/08/19 03:03:57;;;;;;;;;;;20.40;99.90;;;;;;5096454;28;19962;-73
2022/08/19 03:06:23;;;;;;;;;;;20.30;99.90;;;;;;5091813;28;19912;-74
2022/08/19 03:08:49;;;;;;;;;;;20.30;99.90;;;;;;5080917;28;20382;-73
2022/08/19 03:11:22;;;;;;;;;;;20.30;99.90;;;;;;5079092;28;19951;-74
2022/08/19 03:13:48;;;;;;;;;;;20.30;99.90;;;;;;5057835;28;20000;-75
2022/08/19 03:16:14;;;;;;;;;;;20.40;99.90;;;;;;5061097;28;19981;-74
2022/08/19 03:18:40;;;;;;;;;;;20.50;99.90;;;;;;5076907;28;19919;-74
2022/08/19 03:21:06;;;;;;;;;;;20.50;99.90;;;;;;5085400;28;19916;-75
2022/08/19 03:23:32;;;;;;;;;;;20.50;99.90;;;;;;5093191;28;19916;-74
2022/08/19 03:25:58;;;;;;;;;;;20.50;99.90;;;;;;5080297;28;19935;-75
2022/08/19 03:28:23;;;;;;;;;;;20.60;99.90;;;;;;5078034;28;19920;-73
2022/08/19 03:31:15;;;;;;;;;;;20.50;99.90;;;;;;5080505;28;19927;-73
2022/08/19 03:33:41;;;;;;;;;;;20.50;99.90;;;;;;5075220;28;19920;-74
2022/08/19 03:36:08;;;;;;;;;;;20.50;99.90;;;;;;5056388;28;19942;-72
2022/08/19 03:38:35;;;;;;;;;;;20.50;99.90;;;;;;5079406;28;19943;-73
2022/08/19 03:41:12;;;;;;;;;;;20.60;99.90;;;;;;5079303;28;19919;-74
2022/08/19 03:43:38;;;;;;;;;;;20.80;99.90;;;;;;5080437;28;19916;-73
2022/08/19 03:46:05;;;;;;;;;;;20.70;99.90;;;;;;5076075;28;19964;-74
2022/08/19 03:48:31;;;;;;;;;;;20.70;99.90;;;;;;5061416;28;19923;-74
2022/08/19 03:50:58;;;;;;;;;;;20.80;99.90;;;;;;5079542;28;20442;-74
2022/08/19 03:53:25;;;;;;;;;;;20.90;99.90;;;;;;5078804;28;20015;-74
2022/08/19 03:55:51;;;;;;;;;;;21.00;99.90;;;;;;5107028;28;19912;-73
2022/08/19 03:58:16;;;;;;;;;;;21.10;99.90;;;;;;5076699;28;19920;-74
2022/08/19 04:00:43;;;;;;;;;;;21.30;99.90;;;;;;5062222;28;19920;-74
2022/08/19 04:03:08;;;;;;;;;;;21.30;99.90;;;;;;5079095;28;20260;-72
2022/08/19 04:05:34;;;;;;;;;;;21.40;99.90;;;;;;5103204;28;19954;-73
2022/08/19 04:08:00;;;;;;;;;;;21.40;99.90;;;;;;5083599;28;19952;-73
2022/08/19 04:10:27;;;;;;;;;;;21.30;99.90;;;;;;5071028;28;19922;-73
2022/08/19 04:12:53;;;;;;;;;;;21.30;99.90;;;;;;5080138;28;19951;-73
2022/08/19 04:15:19;;;;;;;;;;;21.10;99.90;;;;;;5077816;28;19959;-74
2022/08/19 04:17:44;;;;;;;;;;;21.00;99.90;;;;;;5078318;28;20055;-74
2022/08/19 04:20:10;;;;;;;;;;;20.90;99.90;;;;;;5079587;28;20140;-73
2022/08/19 04:22:36;;;;;;;;;;;20.70;99.90;;;;;;5078815;28;20006;-73
2022/08/19 04:25:01;;;;;;;;;;;20.60;99.90;;;;;;5078705;28;19913;-73
2022/08/19 04:27:27;;;;;;;;;;;20.40;99.90;;;;;;5083505;28;19912;-74
2022/08/19 04:29:53;;;;;;;;;;;20.40;99.90;;;;;;5077630;28;19912;-74
2022/08/19 04:32:19;;;;;;;;;;;20.50;99.90;;;;;;5061122;28;19921;-74
2022/08/19 04:34:44;;;;;;;;;;;20.50;99.90;;;;;;5078317;28;20333;-73
2022/08/19 04:37:11;;;;;;;;;;;20.40;99.90;;;;;;5078079;28;19939;-72
2022/08/19 04:42:39;;;;;;;;;;;20.40;99.90;;;;;;5089700;28;19927;-72
2022/08/19 04:45:11;;;;;;;;;;;20.10;99.90;;;;;;5090172;28;20396;-73
2022/08/19 04:47:38;;;;;;;;;;;20.00;99.90;;;;;;5080216;28;19912;-74
2022/08/19 04:50:04;;;;;;;;;;;20.00;99.90;;;;;;5085478;28;19920;-73
2022/08/19 04:52:31;;;;;;;;;;;19.90;99.90;;;;;;5073476;28;19912;-74
2022/08/19 04:54:56;;;;;;;;;;;19.90;99.90;;;;;;5082268;28;19945;-72
2022/08/19 04:57:22;;;;;;;;;;;19.90;99.90;;;;;;5081518;28;19942;-74
2022/08/19 04:59:48;;;;;;;;;;;20.00;99.90;;;;;;5076805;28;20010;-75
2022/08/19 05:02:13;;;;;;;;;;;20.10;99.90;;;;;;5082902;28;19925;-72
2022/08/19 05:04:39;;;;;;;;;;;20.20;99.90;;;;;;5079443;28;19912;-73
2022/08/19 05:07:05;;;;;;;;;;;20.10;99.90;;;;;;5080151;28;20423;-74
2022/08/19 05:09:31;;;;;;;;;;;20.30;99.90;;;;;;5082952;28;19956;-73
2022/08/19 05:11:56;;;;;;;;;;;20.30;99.90;;;;;;5084517;28;19964;-73
2022/08/19 05:14:22;;;;;;;;;;;20.40;99.90;;;;;;5080601;28;19912;-74
2022/08/19 05:16:48;;;;;;;;;;;20.50;99.90;;;;;;5086461;28;19913;-74
2022/08/19 05:24:43;;;;;;;;;;;20.50;99.90;;;;;;5101981;28;19970;-74
2022/08/19 05:27:08;;;;;;;;;;;20.60;99.90;;;;;;5078975;28;19920;-74
2022/08/19 05:29:34;;;;;;;;;;;20.60;99.90;;;;;;5081210;28;20365;-74
2022/08/19 05:32:00;;;;;;;;;;;20.70;99.90;;;;;;5085723;28;20014;-74
2022/08/19 05:34:26;;;;;;;;;;;20.70;99.90;;;;;;5087272;28;19912;-74
2022/08/19 05:36:57;;;;;;;;;;;20.90;99.90;;;;;;5085462;28;19920;-72
2022/08/19 05:39:23;;;;;;;;;;;21.00;99.90;;;;;;5088634;28;19927;-73
2022/08/19 05:41:54;;;;;;;;;;;21.20;99.90;;;;;;5080255;28;20011;-73
2022/08/19 05:44:21;;;;;;;;;;;21.30;99.90;;;;;;5087590;28;19920;-74
2022/08/19 05:46:46;;;;;;;;;;;21.50;99.90;;;;;;5082063;28;19975;-74
2022/08/19 05:49:13;;;;;;;;;;;21.50;99.90;;;;;;5099401;28;20225;-74
2022/08/19 05:51:38;;;;;;;;;;;21.50;99.90;;;;;;5085082;28;20045;-75
2022/08/19 05:54:05;;;;;;;;;;;21.50;99.90;;;;;;5066098;28;19912;-75
2022/08/19 05:56:31;;;;;;;;;;;21.50;99.90;;;;;;5080845;28;20269;-74
2022/08/19 05:58:58;;;;;;;;;;;21.60;99.90;;;;;;5082615;28;19937;-75
2022/08/19 06:01:24;;;;;;;;;;;21.60;99.90;;;;;;5080144;28;19925;-73
2022/08/19 06:03:50;;;;;;;;;;;21.70;99.90;;;;;;5083129;28;19917;-73
2022/08/19 06:06:16;;;;;;;;;;;21.80;99.90;;;;;;5079755;28;19912;-74
2022/08/19 06:08:50;;;;;;;;;;;22.00;99.90;;;;;;5061549;28;19919;-75
2022/08/19 06:11:32;;;;;;;;;;;22.10;99.90;;;;;;5081780;28;19927;-72
2022/08/19 06:14:01;;;;;;;;;;;22.30;99.90;;;;;;5081538;28;19923;-74
2022/08/19 06:16:27;;;;;;;;;;;22.50;99.90;;;;;;5081403;28;19916;-73
2022/08/19 06:18:53;;;;;;;;;;;22.50;99.90;;;;;;5082012;28;19916;-74
2022/08/19 06:21:23;;;;;;;;;;;22.50;99.90;;;;;;5080668;28;19959;-72
2022/08/19 06:23:51;;;;;;;;;;;22.40;99.90;;;;;;5078284;28;19916;-73
2022/08/19 06:26:18;;;;;;;;;;;22.30;99.90;;;;;;5079570;28;19916;-73
2022/08/19 06:28:46;;;;;;;;;;;22.50;99.90;;;;;;5078682;28;19912;-72
2022/08/19 06:31:16;;;;;;;;;;;22.60;99.90;;;;;;5097153;28;20327;-71
2022/08/19 06:33:43;;;;;;;;;;;22.70;99.90;;;;;;5091400;28;19959;-71
2022/08/19 06:36:16;;;;;;;;;;;22.80;99.90;;;;;;5090327;28;20086;-71
2022/08/19 06:38:41;;;;;;;;;;;23.00;99.90;;;;;;5084407;28;19916;-71
2022/08/19 06:41:07;;;;;;;;;;;23.00;99.90;;;;;;5091295;28;19923;-70
2022/08/19 06:43:34;;;;;;;;;;;23.10;99.90;;;;;;5092872;28;19962;-71
2022/08/19 06:46:00;;;;;;;;;;;23.10;99.90;;;;;;5088144;28;20445;-72
2022/08/19 06:48:26;;;;;;;;;;;23.30;99.90;;;;;;5081523;28;20273;-72
2022/08/19 06:50:52;;;;;;;;;;;23.40;99.90;;;;;;5092001;28;19920;-71
2022/08/19 06:53:19;;;;;;;;;;;23.50;99.90;;;;;;5093935;28;20019;-73
2022/08/19 06:55:45;;;;;;;;;;;23.60;99.90;;;;;;5089469;28;19919;-71
2022/08/19 06:58:10;;;;;;;;;;;23.80;99.90;;;;;;5092280;28;20019;-72
2022/08/19 07:00:36;;;;;;;;;;;23.90;99.90;;;;;;5088658;28;19951;-72
2022/08/19 07:03:02;;;;;;;;;;;24.00;99.90;;;;;;5088238;28;19912;-71
2022/08/19 07:05:27;;;;;;;;;;;24.20;99.90;;;;;;5069148;28;19975;-70
2022/08/19 07:07:53;;;;;;;;;;;24.40;99.90;;;;;;5087341;28;19916;-72
2022/08/19 07:10:19;;;;;;;;;;;24.70;99.90;;;;;;5091170;28;19912;-71
2022/08/19 07:12:44;;;;;;;;;;;24.90;99.90;;;;;;5097304;28;20312;-70
2022/08/19 07:15:10;;;;;;;;;;;25.00;99.90;;;;;;5080203;28;19969;-70
2022/08/19 07:17:39;;;;;;;;;;;25.20;99.90;;;;;;5101818;28;19966;-71
2022/08/19 07:20:06;;;;;;;;;;;25.10;99.90;;;;;;5092636;28;20305;-71
2022/08/19 07:22:35;;;;;;;;;;;25.10;99.90;;;;;;5085543;28;20372;-71
2022/08/19 07:25:03;;;;;;;;;;;25.20;99.90;;;;;;5099714;28;20022;-72
2022/08/19 07:27:29;;;;;;;;;;;25.30;99.90;;;;;;5097506;28;19957;-71
2022/08/19 07:29:54;;;;;;;;;;;25.40;99.90;;;;;;5094408;28;19912;-71
2022/08/19 07:32:20;;;;;;;;;;;25.50;99.90;;;;;;5091822;28;20232;-71
2022/08/19 07:34:46;;;;;;;;;;;25.50;99.90;;;;;;5107047;28;19919;-72
2022/08/19 07:37:11;;;;;;;;;;;25.60;99.90;;;;;;5094316;28;19916;-72
2022/08/19 07:39:37;;;;;;;;;;;25.70;99.90;;;;;;5097575;28;20261;-70
2022/08/19 07:42:06;;;;;;;;;;;25.60;99.90;;;;;;5070302;28;19959;-70
2022/08/19 07:44:33;;;;;;;;;;;25.50;99.90;;;;;;5088854;28;19912;-71
2022/08/19 07:46:59;;;;;;;;;;;25.40;99.90;;;;;;5096283;28;19912;-71
2022/08/19 07:49:25;;;;;;;;;;;25.40;99.90;;;;;;5097225;28;19908;-71
2022/08/19 07:52:02;;;;;;;;;;;25.70;99.90;;;;;;5088447;28;20380;-70
2022/08/19 07:54:29;;;;;;;;;;;25.90;99.90;;;;;;5101890;28;19916;-72
2022/08/19 07:56:55;;;;;;;;;;;26.10;99.90;;;;;;5097848;28;19911;-72
2022/08/19 07:59:21;;;;;;;;;;;26.20;99.90;;;;;;5092294;28;19920;-70
2022/08/19 08:01:47;;;;;;;;;;;26.20;99.90;;;;;;5102418;28;20143;-71
2022/08/19 08:09:43;;;;;;;;;;;26.10;99.90;;;;;;5101265;28;19990;-72
2022/08/19 08:12:14;;;;;;;;;;;26.20;99.90;;;;;;5090084;28;20023;-70
2022/08/19 08:14:46;;;;;;;;;;;26.30;99.90;;;;;;5066159;28;20263;-72
2022/08/19 08:17:12;;;;;;;;;;;26.40;99.90;;;;;;5089775;28;20042;-73
2022/08/19 08:19:38;;;;;;;;;;;26.50;99.90;;;;;;5089917;28;20376;-72
2022/08/19 08:22:06;;;;;;;;;;;26.30;99.90;;;;;;5090038;28;19928;-70
2022/08/19 08:24:32;;;;;;;;;;;26.30;99.90;;;;;;5092971;28;19916;-71
2022/08/19 08:26:58;;;;;;;;;;;26.20;99.90;;;;;;5099825;28;19912;-71
2022/08/19 08:29:25;;;;;;;;;;;26.20;99.90;;;;;;5088174;28;20300;-72
2022/08/19 08:31:51;;;;;;;;;;;26.40;99.90;;;;;;5067235;28;20619;-71
2022/08/19 08:34:16;;;;;;;;;;;26.70;99.90;;;;;;5089727;28;19916;-71
2022/08/19 08:36:44;;;;;;;;;;;26.90;99.90;;;;;;5090170;28;19916;-70
2022/08/19 08:39:14;;;;;;;;;;;27.20;99.90;;;;;;5093840;28;20314;-70
2022/08/19 08:42:05;;;;;;;;;;;27.10;99.90;;;;;;5098459;28;19916;-72
2022/08/19 08:44:36;;;;;;;;;;;27.10;99.90;;;;;;5088785;28;19912;-71
2022/08/19 08:47:04;;;;;;;;;;;27.00;99.90;;;;;;5097879;28;20254;-70
2022/08/19 08:49:30;;;;;;;;;;;27.00;99.90;;;;;;5098505;28;20356;-72
2022/08/19 08:52:04;;;;;;;;;;;27.30;99.90;;;;;;5076990;28;20074;-71
2022/08/19 08:54:34;;;;;;;;;;;27.60;99.90;;;;;;5096112;28;19911;-71
2022/08/19 08:57:00;;;;;;;;;;;28.00;99.90;;;;;;5095274;28;19936;-70
2022/08/19 08:59:34;;;;;;;;;;;28.40;99.90;;;;;;5106675;28;19913;-71
2022/08/19 09:01:59;;;;;;;;;;;28.60;99.90;;;;;;5075828;28;20426;-72
2022/08/19 09:04:25;;;;;;;;;;;28.80;99.90;;;;;;5096040;28;20014;-71
2022/08/19 09:07:08;;;;;;;;;;;28.80;99.90;;;;;;5095235;28;20343;-71
2022/08/19 09:09:44;;;;;;;;;;;28.80;99.90;;;;;;5088108;28;19935;-71
2022/08/19 09:12:25;;;;;;;;;;;28.50;99.90;;;;;;5077735;28;19916;-71
2022/08/19 09:14:54;;;;;;;;;;;28.20;99.90;;;;;;5094847;28;19993;-70
2022/08/19 09:17:27;;;;;;;;;;;28.30;99.90;;;;;;5094612;28;19912;-70
2022/08/19 09:19:53;;;;;;;;;;;28.40;99.90;;;;;;5096859;28;19916;-69
2022/08/19 09:22:22;;;;;;;;;;;28.50;99.90;;;;;;5076082;28;19915;-71
2022/08/19 09:24:54;;;;;;;;;;;28.60;99.90;;;;;;5093854;28;19912;-71
2022/08/19 09:27:20;;;;;;;;;;;28.80;99.90;;;;;;5093610;28;19912;-72
2022/08/19 09:29:48;;;;;;;;;;;29.00;99.90;;;;;;5091421;28;19912;-69
2022/08/19 09:32:13;;;;;;;;;;;29.10;99.90;;;;;;5105724;28;19912;-70
2022/08/19 09:34:39;;;;;;;;;;;29.10;99.90;;;;;;5097078;28;19911;-70
2022/08/19 09:37:05;;;;;;;;;;;29.10;99.90;;;;;;5095916;28;19915;-72
2022/08/19 09:39:30;;;;;;;;;;;29.20;99.90;;;;;;5104600;28;19911;-70
2022/08/19 09:41:56;;;;;;;;;;;29.10;99.90;;;;;;5079419;28;19916;-71
2022/08/19 09:44:22;;;;;;;;;;;29.00;99.90;;;;;;5115609;28;19908;-70
2022/08/19 09:46:47;;;;;;;;;;;29.00;99.90;;;;;;5097553;28;19919;-70
2022/08/19 09:49:13;;;;;;;;;;;29.10;99.90;;;;;;5111090;28;19923;-71
2022/08/19 09:51:39;;;;;;;;;;;29.30;99.90;;;;;;5107711;28;19913;-71
2022/08/19 09:54:04;;;;;;;;;;;29.60;99.90;;;;;;5101873;28;19912;-71
2022/08/19 09:56:30;;;;;;;;;;;29.80;99.90;;;;;;5092652;28;19914;-70
2022/08/19 09:58:57;;;;;;;;;;;29.70;99.90;;;;;;5083474;28;20366;-70
2022/08/19 10:01:25;;;;;;;;;;;29.60;99.90;;;;;;5093195;28;19991;-69
2022/08/19 10:03:53;;;;;;;;;;;29.60;99.90;;;;;;5093076;28;20429;-70
2022/08/19 10:06:19;;;;;;;;;;;29.60;99.90;;;;;;5093608;28;19908;-70
2022/08/19 10:08:45;;;;;;;;;;;29.50;99.90;;;;;;5093480;28;19912;-72
2022/08/19 10:11:11;;;;;;;;;;;29.30;99.90;;;;;;5093832;28;20342;-71
2022/08/19 10:13:36;;;;;;;;;;;29.00;99.90;;;;;;5093208;28;19912;-70
2022/08/19 10:16:07;;;;;;;;;;;28.80;99.90;;;;;;5089639;28;19912;-70
2022/08/19 10:18:34;;;;;;;;;;;28.60;99.90;;;;;;5114418;28;19907;-70
2022/08/19 10:21:08;;;;;;;;;;;28.50;99.90;;;;;;5100534;28;19977;-69
2022/08/19 10:23:34;;;;;;;;;;;28.40;99.90;;;;;;5094468;28;20039;-71
2022/08/19 10:26:00;;;;;;;;;;;28.30;99.90;;;;;;5102562;28;20007;-70
2022/08/19 10:28:25;;;;;;;;;;;28.10;99.90;;;;;;5106018;28;20274;-70
2022/08/19 10:30:51;;;;;;;;;;;27.90;99.90;;;;;;5099480;28;19916;-70
2022/08/19 10:33:17;;;;;;;;;;;27.70;99.90;;;;;;5104262;28;19955;-71
2022/08/19 10:35:42;;;;;;;;;;;27.30;99.90;;;;;;5092980;28;20434;-71
2022/08/19 10:38:08;;;;;;;;;;;26.60;99.90;;;;;;5096310;28;19913;-71
2022/08/19 10:40:34;;;;;;;;;;;25.80;99.90;;;;;;5099474;28;19916;-70
2022/08/19 10:43:00;;;;;;;;;;;24.90;99.90;;;;;;5121377;28;19908;-71
2022/08/19 10:45:26;;;;;;;;;;;24.40;99.90;;;;;;5110712;28;19912;-71
2022/08/19 10:47:52;;;;;;;;;;;24.10;99.90;;;;;;5079256;28;20034;-72
2022/08/19 10:53:04;;;;;;;;;;;23.50;99.90;;;;;;5105063;28;20390;-71
2022/08/19 10:58:15;;;;;;;;;;;23.40;99.90;;;;;;5092995;28;20009;-73
2022/08/19 11:00:42;;;;;;;;;;;23.50;99.90;;;;;;5091777;28;19967;-71
2022/08/19 11:03:08;;;;;;;;;;;23.60;99.90;;;;;;5098320;28;19912;-71
2022/08/19 11:05:34;;;;;;;;;;;23.60;99.90;;;;;;5099572;28;19911;-71
2022/08/19 11:07:59;;;;;;;;;;;23.80;99.90;;;;;;5096043;28;19912;-71
2022/08/19 11:10:25;;;;;;;;;;;24.20;99.90;;;;;;5103574;28;19912;-71
2022/08/19 11:12:54;;;;;;;;;;;24.40;99.90;;;;;;5101332;28;19919;-71
2022/08/19 11:15:19;;;;;;;;;;;24.70;99.90;;;;;;5105444;28;19912;-71
2022/08/19 11:17:45;;;;;;;;;;;25.00;99.90;;;;;;5084247;28;20026;-72
2022/08/19 11:20:12;;;;;;;;;;;25.20;99.90;;;;;;5078144;28;19916;-71
2022/08/19 11:22:37;;;;;;;;;;;25.10;99.90;;;;;;5089022;28;19916;-72
2022/08/19 11:25:03;;;;;;;;;;;25.10;99.90;;;;;;5094191;28;20090;-71
2022/08/19 11:27:29;;;;;;;;;;;25.00;99.90;;;;;;5102425;28;20326;-71
2022/08/19 11:29:54;;;;;;;;;;;25.10;99.90;;;;;;5097301;28;19981;-74
2022/08/19 11:32:20;;;;;;;;;;;25.30;99.90;;;;;;5110099;28;20122;-70
2022/08/19 11:34:45;;;;;;;;;;;25.60;99.90;;;;;;5098573;28;19995;-70
2022/08/19 11:37:11;;;;;;;;;;;25.90;99.90;;;;;;5105110;28;19947;-71
2022/08/19 11:39:37;;;;;;;;;;;26.30;99.90;;;;;;5094335;28;19995;-71
2022/08/19 11:42:55;;;;;;;;;;;26.70;99.90;;;;;;5096317;28;19920;-70
2022/08/19 11:44:50;;;;;;;;;;;27.00;99.90;;;;;;5097773;28;19912;-70
2022/08/19 11:47:16;;;;;;;;;;;27.00;99.90;;;;;;5083357;28;20021;-71
2022/08/19 11:49:42;;;;;;;;;;;26.80;99.90;;;;;;5073804;28;20366;-72
2022/08/19 11:52:07;;;;;;;;;;;26.90;99.90;;;;;;5113861;28;19929;-71
2022/08/19 11:54:33;;;;;;;;;;;27.00;99.90;;;;;;5102340;28;20003;-71
2022/08/19 11:57:00;;;;;;;;;;;27.00;99.90;;;;;;5107957;28;19916;-71
2022/08/19 11:59:27;;;;;;;;;;;27.10;99.90;;;;;;5111748;28;19912;-71
2022/08/19 12:01:52;;;;;;;;;;;27.20;99.90;;;;;;5081768;28;19963;-70
2022/08/19 12:04:18;;;;;;;;;;;27.40;99.90;;;;;;5127824;27;20372;-72
2022/08/19 12:06:44;;;;;;;;;;;27.60;99.90;;;;;;5115369;28;20357;-71
2022/08/19 12:09:10;;;;;;;;;;;27.90;99.90;;;;;;5117507;28;19908;-71
2022/08/19 12:11:36;;;;;;;;;;;28.00;99.90;;;;;;5092843;28;19982;-72
2022/08/19 12:14:02;;;;;;;;;;;28.20;99.90;;;;;;5095449;28;20003;-72
2022/08/19 12:16:30;;;;;;;;;;;28.70;99.90;;;;;;5096954;28;20005;-72
2022/08/19 12:18:56;;;;;;;;;;;29.00;99.90;;;;;;5098261;28;19912;-72
2022/08/19 12:21:27;;;;;;;;;;;29.10;99.90;;;;;;5089922;28;19958;-71
2022/08/19 12:23:53;;;;;;;;;;;29.00;99.90;;;;;;5109706;28;19927;-71
2022/08/19 12:26:18;;;;;;;;;;;28.90;99.90;;;;;;5113115;28;19994;-71
2022/08/19 12:28:44;;;;;;;;;;;29.00;99.90;;;;;;5103283;28;19919;-72
2022/08/19 12:31:11;;;;;;;;;;;28.80;99.90;;;;;;5101187;28;19920;-70
2022/08/19 12:33:38;;;;;;;;;;;28.70;99.90;;;;;;5103459;28;19919;-72
2022/08/19 12:36:05;;;;;;;;;;;28.40;99.90;;;;;;5101882;28;20025;-70
2022/08/19 12:38:32;;;;;;;;;;;28.20;99.90;;;;;;5099906;28;20192;-72
2022/08/19 12:40:57;;;;;;;;;;;28.10;99.90;;;;;;5120066;28;19992;-73
2022/08/19 12:43:23;;;;;;;;;;;28.00;99.90;;;;;;5119301;28;19912;-71
2022/08/19 12:45:49;;;;;;;;;;;28.00;99.90;;;;;;5104545;28;19916;-71
2022/08/19 12:48:14;;;;;;;;;;;27.90;99.90;;;;;;5086927;28;19935;-72
2022/08/19 12:50:41;;;;;;;;;;;27.90;99.90;;;;;;5096963;28;19912;-71
2022/08/19 12:53:07;;;;;;;;;;;27.80;99.90;;;;;;5109797;28;19924;-71
2022/08/19 12:55:32;;;;;;;;;;;27.90;99.90;;;;;;5101335;28;20369;-72
2022/08/19 12:58:00;;;;;;;;;;;27.90;99.90;;;;;;5100900;28;19912;-71
2022/08/19 13:00:26;;;;;;;;;;;28.00;99.90;;;;;;5101560;28;19908;-71
2022/08/19 13:02:52;;;;;;;;;;;28.00;99.90;;;;;;5100817;28;20007;-71
2022/08/19 13:05:24;;;;;;;;;;;28.10;99.90;;;;;;5102636;28;20405;-71
2022/08/19 13:07:51;;;;;;;;;;;28.00;99.90;;;;;;5097962;28;19919;-71
2022/08/19 13:10:19;;;;;;;;;;;28.10;99.90;;;;;;5088451;28;19917;-72
2022/08/19 13:12:46;;;;;;;;;;;28.20;99.90;;;;;;5087057;28;19912;-71
2022/08/19 13:15:12;;;;;;;;;;;28.20;99.90;;;;;;5088042;28;19979;-72
2022/08/19 13:17:39;;;;;;;;;;;28.40;99.90;;;;;;5100407;28;20443;-73
2022/08/19 13:20:07;;;;;;;;;;;28.30;99.90;;;;;;5098749;28;20333;-71
2022/08/19 13:22:32;;;;;;;;;;;28.30;99.90;;;;;;5103010;28;19947;-71
2022/08/19 13:24:58;;;;;;;;;;;28.20;99.90;;;;;;5101233;28;19960;-71
2022/08/19 13:27:24;;;;;;;;;;;28.20;99.90;;;;;;5095257;28;19923;-71
2022/08/19 13:35:18;;;;;;;;;;;28.40;99.90;;;;;;5086207;28;20042;-71
2022/08/19 13:37:45;;;;;;;;;;;28.40;99.90;;;;;;5091073;28;20002;-71
2022/08/19 13:40:15;;;;;;;;;;;28.30;99.90;;;;;;5092035;28;19919;-71
2022/08/19 13:42:41;;;;;;;;;;;28.40;99.90;;;;;;5102033;28;20367;-71
2022/08/19 13:45:07;;;;;;;;;;;28.50;99.90;;;;;;5092263;28;20278;-70
2022/08/19 13:47:42;;;;;;;;;;;28.40;99.90;;;;;;5113254;28;19919;-72
2022/08/19 13:50:10;;;;;;;;;;;28.40;99.90;;;;;;5105991;28;19969;-69
2022/08/19 13:52:36;;;;;;;;;;;28.10;99.90;;;;;;5082457;28;19912;-71
2022/08/19 13:55:01;;;;;;;;;;;27.70;99.90;;;;;;5083013;28;19918;-70
2022/08/19 13:57:27;;;;;;;;;;;27.50;99.90;;;;;;5091864;28;19912;-70
2022/08/19 13:59:53;;;;;;;;;;;27.50;99.90;;;;;;5074695;28;20346;-70
2022/08/19 14:02:18;;;;;;;;;;;27.20;99.90;;;;;;5098879;28;19916;-69
2022/08/19 14:04:44;;;;;;;;;;;27.00;99.90;;;;;;5091773;28;20289;-69
2022/08/19 14:07:10;;;;;;;;;;;26.90;99.90;;;;;;5097338;28;19912;-67
2022/08/19 14:09:35;;;;;;;;;;;26.70;99.90;;;;;;5096010;28;19912;-67
2022/08/19 14:12:01;;;;;;;;;;;26.60;99.90;;;;;;5101392;28;19911;-68
2022/08/19 14:14:26;;;;;;;;;;;26.40;99.90;;;;;;5087006;28;20356;-67
2022/08/19 14:16:52;;;;;;;;;;;26.50;99.90;;;;;;5097852;28;19947;-67
2022/08/19 14:19:19;;;;;;;;;;;26.50;99.90;;;;;;5105224;28;19908;-68
2022/08/19 14:21:44;;;;;;;;;;;26.70;99.90;;;;;;5108216;28;19915;-71
2022/08/19 14:24:10;;;;;;;;;;;26.90;99.90;;;;;;5101930;28;19929;-70
2022/08/19 14:26:36;;;;;;;;;;;26.80;99.90;;;;;;5104641;28;19927;-69
2022/08/19 14:29:01;;;;;;;;;;;26.60;99.90;;;;;;5102418;28;19970;-69
2022/08/19 14:31:27;;;;;;;;;;;26.30;99.90;;;;;;5097302;28;20433;-69
2022/08/19 14:33:53;;;;;;;;;;;26.20;99.90;;;;;;5092256;28;19923;-69
2022/08/19 14:36:20;;;;;;;;;;;26.00;99.90;;;;;;5097034;28;19920;-67
2022/08/19 14:38:46;;;;;;;;;;;26.10;99.90;;;;;;5097252;28;19912;-69